Time,TemperatureF,DewpointF,PressureIn,WindDirection,WindDirectionDegrees,WindSpeedMPH,WindSpeedGustMPH,Humidity,HourlyPrecipIn,Conditions,Clouds,dailyrainin,SolarRadiationWatts/m^2,SoftwareType,DateUTC
2013-10-24 00:06:00,45.2,44.0,29.98,SSE,165,0.0,0.0,94,0.00,,,0.00,0,weatherlink.com 1.10,2013-10-24 07:06:00,
2013-10-24 00:21:00,45.5,44.0,29.98,SSE,165,0.0,0.0,95,0.00,,,0.00,0,weatherlink.com 1.10,2013-10-24 07:21:00,
2013-10-24 00:36:00,45.7,44.0,29.98,SSE,165,0.0,0.0,95,0.00,,,0.00,0,weatherlink.com 1.10,2013-10-24 07:36:00,
2013-10-24 00:51:00,45.9,45.0,29.98,SSE,165,0.0,0.0,95,0.00,,,0.00,0,weatherlink.com 1.10,2013-10-24 07:51:00,
2013-10-24 01:06:00,46.0,45.0,29.98,SSE,165,0.0,0.0,95,0.00,,,0.00,0,weatherlink.com 1.10,2013-10-24 08:06:00,
2013-10-24 01:21:00,46.2,45.0,29.98,SSE,165,0.0,0.0,95,0.00,,,0.00,0,weatherlink.com 1.10,2013-10-24 08:21:00,
2013-10-24 01:36:00,46.5,45.0,29.98,SSW,192,0.0,1.0,95,0.00,,,0.00,0,weatherlink.com 1.10,2013-10-24 08:36:00,
2013-10-24 01:51:00,46.4,45.0,29.99,SSW,193,0.0,1.0,95,0.00,,,0.00,0,weatherlink.com 1.10,2013-10-24 08:51:00,
2013-10-24 02:06:00,45.8,45.0,29.99,SSW,205,0.0,2.0,95,0.00,,,0.00,0,weatherlink.com 1.10,2013-10-24 09:06:00,
2013-10-24 02:21:00,45.4,44.0,29.99,SSW,205,0.0,0.0,95,0.00,,,0.00,0,weatherlink.com 1.10,2013-10-24 09:21:00,
2013-10-24 02:36:00,45.4,44.0,29.99,SW,227,0.0,0.0,95,0.00,,,0.00,0,weatherlink.com 1.10,2013-10-24 09:36:00,
2013-10-24 02:51:00,45.4,44.0,29.99,SW,227,0.0,0.0,95,0.00,,,0.00,0,weatherlink.com 1.10,2013-10-24 09:51:00,
2013-10-24 03:06:00,45.3,44.0,29.99,SW,227,0.0,0.0,95,0.00,,,0.00,0,weatherlink.com 1.10,2013-10-24 10:06:00,
2013-10-24 03:21:00,45.4,44.0,29.99,SW,227,0.0,1.0,95,0.00,,,0.00,0,weatherlink.com 1.10,2013-10-24 10:21:00,
2013-10-24 03:36:00,45.6,44.0,29.99,SW,227,0.0,1.0,95,0.00,,,0.00,0,weatherlink.com 1.10,2013-10-24 10:36:00,
2013-10-24 03:51:00,45.7,44.0,29.99,SW,227,0.0,1.0,95,0.00,,,0.00,0,weatherlink.com 1.10,2013-10-24 10:51:00,
2013-10-24 04:06:00,45.6,44.0,29.99,SW,227,0.0,1.0,95,0.00,,,0.00,0,weatherlink.com 1.10,2013-10-24 11:06:00,
2013-10-24 04:21:00,45.4,44.0,29.99,SW,226,0.0,2.0,95,0.00,,,0.00,0,weatherlink.com 1.10,2013-10-24 11:21:00,
2013-10-24 04:36:00,45.4,44.0,29.99,SW,226,0.0,0.0,95,0.00,,,0.00,0,weatherlink.com 1.10,2013-10-24 11:36:00,
2013-10-24 04:51:00,45.4,44.0,29.99,SW,226,0.0,1.0,95,0.00,,,0.00,0,weatherlink.com 1.10,2013-10-24 11:51:00,
2013-10-24 05:06:00,45.6,44.0,29.99,SW,226,0.0,0.0,95,0.00,,,0.00,0,weatherlink.com 1.10,2013-10-24 12:06:00,
2013-10-24 05:21:00,45.5,44.0,29.99,SW,226,0.0,1.0,95,0.00,,,0.00,0,weatherlink.com 1.10,2013-10-24 12:21:00,
2013-10-24 05:36:00,45.5,44.0,29.99,SW,226,0.0,0.0,95,0.00,,,0.00,0,weatherlink.com 1.10,2013-10-24 12:36:00,
2013-10-24 05:51:00,45.5,44.0,30.00,SW,226,0.0,1.0,95,0.00,,,0.00,0,weatherlink.com 1.10,2013-10-24 12:51:00,
2013-10-24 08:52:00,46.0,45.0,30.04,SW,228,0.0,1.0,96,0.00,,,0.00,44,weatherlink.com 1.10,2013-10-24 15:52:00,
2013-10-24 09:07:00,45.9,45.0,30.04,SW,228,0.0,2.0,96,0.00,,,0.00,54,weatherlink.com 1.10,2013-10-24 16:07:00,
2013-10-24 09:22:00,46.2,45.0,30.04,WSW,244,0.0,4.0,96,0.00,,,0.00,95,weatherlink.com 1.10,2013-10-24 16:22:00,
2013-10-24 09:37:00,46.7,46.0,30.05,WSW,244,0.0,1.0,96,0.00,,,0.00,114,weatherlink.com 1.10,2013-10-24 16:37:00,
2013-10-24 09:52:00,46.8,46.0,30.05,West,271,0.0,1.0,96,0.00,,,0.00,141,weatherlink.com 1.10,2013-10-24 16:52:00,
2013-10-24 10:07:00,47.5,46.0,30.05,West,277,0.0,1.0,95,0.00,,,0.00,144,weatherlink.com 1.10,2013-10-24 17:07:00,
2013-10-24 10:22:00,47.7,46.0,30.06,WNW,289,0.0,1.0,95,0.00,,,0.00,176,weatherlink.com 1.10,2013-10-24 17:22:00,
2013-10-24 10:37:00,48.7,48.0,30.07,NNW,344,2.0,2.0,96,0.00,,,0.00,190,weatherlink.com 1.10,2013-10-24 17:37:00,
2013-10-24 10:52:00,49.0,48.0,30.07,ENE,67,0.0,3.0,95,0.00,,,0.00,267,weatherlink.com 1.10,2013-10-24 17:52:00,
2013-10-24 11:08:00,51.1,49.0,30.07,North,9,2.0,5.0,93,0.00,,,0.00,265,weatherlink.com 1.10,2013-10-24 18:08:00,
2013-10-24 11:23:00,52.0,49.0,30.07,NE,53,0.0,4.0,89,0.00,,,0.00,350,weatherlink.com 1.10,2013-10-24 18:23:00,
2013-10-24 11:38:00,53.4,49.0,30.07,NNE,13,2.0,5.0,86,0.00,,,0.00,199,weatherlink.com 1.10,2013-10-24 18:38:00,
2013-10-24 11:53:00,53.4,49.0,30.08,ENE,64,1.0,6.0,86,0.00,,,0.00,211,weatherlink.com 1.10,2013-10-24 18:53:00,
2013-10-24 12:08:00,55.3,50.0,30.07,South,173,0.0,5.0,82,0.00,,,0.00,729,weatherlink.com 1.10,2013-10-24 19:08:00,
2013-10-24 12:23:00,57.3,49.0,30.07,South,180,3.0,8.0,75,0.00,,,0.00,684,weatherlink.com 1.10,2013-10-24 19:23:00,
2013-10-24 12:38:00,57.6,49.0,30.06,South,180,1.0,6.0,73,0.00,,,0.00,610,weatherlink.com 1.10,2013-10-24 19:38:00,
2013-10-24 12:53:00,59.4,51.0,30.06,NNE,24,6.0,6.0,73,0.00,,,0.00,610,weatherlink.com 1.10,2013-10-24 19:53:00,
2013-10-24 13:08:00,59.4,50.0,30.05,NNE,17,0.0,6.0,72,0.00,,,0.00,642,weatherlink.com 1.10,2013-10-24 20:08:00,
2013-10-24 13:23:00,60.5,51.0,30.05,NNE,28,1.0,6.0,70,0.00,,,0.00,638,weatherlink.com 1.10,2013-10-24 20:23:00,
2013-10-24 13:38:00,61.3,51.0,30.04,North,355,0.0,4.0,68,0.00,,,0.00,628,weatherlink.com 1.10,2013-10-24 20:38:00,
2013-10-24 13:53:00,62.0,50.0,30.03,ESE,113,0.0,6.0,66,0.00,,,0.00,621,weatherlink.com 1.10,2013-10-24 20:53:00,
2013-10-24 14:08:00,63.9,51.0,30.03,WNW,284,0.0,3.0,63,0.00,,,0.00,605,weatherlink.com 1.10,2013-10-24 21:08:00,
2013-10-24 14:23:00,64.6,51.0,30.02,South,180,0.0,5.0,61,0.00,,,0.00,592,weatherlink.com 1.10,2013-10-24 21:23:00,
2013-10-24 14:38:00,64.8,51.0,30.02,North,9,5.0,5.0,61,0.00,,,0.00,570,weatherlink.com 1.10,2013-10-24 21:38:00,
2013-10-24 14:53:00,65.9,51.0,30.01,NNE,33,2.0,7.0,59,0.00,,,0.00,547,weatherlink.com 1.10,2013-10-24 21:53:00,
2013-10-24 15:08:00,65.9,51.0,30.01,NE,47,6.0,8.0,58,0.00,,,0.00,520,weatherlink.com 1.10,2013-10-24 22:08:00,
2013-10-24 15:23:00,66.3,51.0,30.01,NE,37,0.0,6.0,58,0.00,,,0.00,487,weatherlink.com 1.10,2013-10-24 22:23:00,
2013-10-24 15:38:00,67.0,51.0,30.00,NNE,13,2.0,6.0,56,0.00,,,0.00,457,weatherlink.com 1.10,2013-10-24 22:38:00,
2013-10-24 15:53:00,66.6,50.0,30.00,NNW,345,0.0,7.0,56,0.00,,,0.00,420,weatherlink.com 1.10,2013-10-24 22:53:00,
2013-10-24 16:08:00,67.1,51.0,30.00,NE,53,2.0,8.0,56,0.00,,,0.00,381,weatherlink.com 1.10,2013-10-24 23:08:00,
2013-10-24 16:23:00,67.2,51.0,30.00,NE,52,1.0,6.0,57,0.00,,,0.00,338,weatherlink.com 1.10,2013-10-24 23:23:00,
2013-10-24 16:38:00,65.0,51.0,30.00,SSW,194,5.0,8.0,60,0.00,,,0.00,297,weatherlink.com 1.10,2013-10-24 23:38:00,
2013-10-24 16:53:00,65.2,51.0,30.00,South,175,3.0,6.0,60,0.00,,,0.00,230,weatherlink.com 1.10,2013-10-24 23:53:00,
2013-10-24 17:08:00,64.0,51.0,30.01,SSW,200,3.0,5.0,62,0.00,,,0.00,197,weatherlink.com 1.10,2013-10-25 00:08:00,
2013-10-24 17:23:00,62.5,50.0,30.01,South,174,3.0,9.0,65,0.00,,,0.00,141,weatherlink.com 1.10,2013-10-25 00:23:00,
2013-10-24 17:38:00,61.5,50.0,30.02,SSW,205,0.0,7.0,66,0.00,,,0.00,84,weatherlink.com 1.10,2013-10-25 00:38:00,
2013-10-24 17:53:00,59.3,49.0,30.02,SW,236,2.0,5.0,69,0.00,,,0.00,44,weatherlink.com 1.10,2013-10-25 00:53:00,
2013-10-24 18:08:00,57.6,49.0,30.02,SSW,209,0.0,6.0,72,0.00,,,0.00,7,weatherlink.com 1.10,2013-10-25 01:08:00,
2013-10-24 18:23:00,56.1,48.0,30.03,SSW,211,0.0,3.0,74,0.00,,,0.00,0,weatherlink.com 1.10,2013-10-25 01:23:00,
2013-10-24 18:38:00,54.9,47.0,30.03,SSW,211,0.0,3.0,76,0.00,,,0.00,0,weatherlink.com 1.10,2013-10-25 01:38:00,
2013-10-24 18:54:00,53.7,47.0,30.03,SSW,194,0.0,1.0,78,0.00,,,0.00,0,weatherlink.com 1.10,2013-10-25 01:54:00,
2013-10-24 19:08:00,52.3,47.0,30.03,SSW,194,0.0,0.0,81,0.00,,,0.00,0,weatherlink.com 1.10,2013-10-25 02:08:00,
2013-10-24 19:23:00,50.8,46.0,30.04,SSW,194,0.0,0.0,83,0.00,,,0.00,0,weatherlink.com 1.10,2013-10-25 02:23:00,
2013-10-24 19:38:00,49.8,46.0,30.05,SSW,194,0.0,0.0,85,0.00,,,0.00,0,weatherlink.com 1.10,2013-10-25 02:38:00,
2013-10-24 19:53:00,48.9,45.0,30.05,SSW,194,0.0,0.0,87,0.00,,,0.00,0,weatherlink.com 1.10,2013-10-25 02:53:00,
2013-10-24 20:08:00,48.7,46.0,30.05,SSW,194,0.0,1.0,89,0.00,,,0.00,0,weatherlink.com 1.10,2013-10-25 03:08:00,
2013-10-24 20:23:00,49.2,46.0,30.05,SSW,194,0.0,1.0,89,0.00,,,0.00,0,weatherlink.com 1.10,2013-10-25 03:23:00,
2013-10-24 20:38:00,49.0,46.0,30.05,SSW,194,0.0,0.0,89,0.00,,,0.00,0,weatherlink.com 1.10,2013-10-25 03:38:00,
2013-10-24 20:53:00,49.4,46.0,30.06,SSW,194,0.0,1.0,89,0.00,,,0.00,0,weatherlink.com 1.10,2013-10-25 03:53:00,
2013-10-24 21:08:00,48.3,45.0,30.07,SSW,194,0.0,1.0,88,0.00,,,0.00,0,weatherlink.com 1.10,2013-10-25 04:08:00,
2013-10-24 21:23:00,48.7,46.0,30.08,SSW,195,0.0,2.0,90,0.00,,,0.00,0,weatherlink.com 1.10,2013-10-25 04:23:00,
2013-10-24 21:38:00,49.6,47.0,30.08,WSW,246,0.0,2.0,90,0.00,,,0.00,0,weatherlink.com 1.10,2013-10-25 04:38:00,
2013-10-24 21:53:00,49.5,46.0,30.09,WSW,246,0.0,1.0,89,0.00,,,0.00,0,weatherlink.com 1.10,2013-10-25 04:53:00,
2013-10-24 22:08:00,47.5,44.0,30.09,WSW,246,0.0,0.0,88,0.00,,,0.00,0,weatherlink.com 1.10,2013-10-25 05:08:00,
2013-10-24 22:23:00,46.1,43.0,30.09,WSW,246,0.0,0.0,89,0.00,,,0.00,0,weatherlink.com 1.10,2013-10-25 05:23:00,
2013-10-24 22:38:00,45.3,43.0,30.09,WSW,246,0.0,0.0,90,0.00,,,0.00,0,weatherlink.com 1.10,2013-10-25 05:38:00,
2013-10-24 22:53:00,45.1,43.0,30.09,WSW,246,0.0,0.0,91,0.00,,,0.00,0,weatherlink.com 1.10,2013-10-25 05:53:00,
2013-10-24 23:08:00,44.9,43.0,30.10,WSW,246,0.0,0.0,92,0.00,,,0.00,0,weatherlink.com 1.10,2013-10-25 06:08:00,
2013-10-24 23:24:00,44.5,42.0,30.10,WSW,246,0.0,0.0,92,0.00,,,0.00,0,weatherlink.com 1.10,2013-10-25 06:24:00,
2013-10-24 23:39:00,44.2,42.0,30.11,WSW,246,0.0,0.0,93,0.00,,,0.00,0,weatherlink.com 1.10,2013-10-25 06:39:00,
2013-10-24 23:54:00,44.2,42.0,30.11,WSW,246,0.0,0.0,93,0.00,,,0.00,0,weatherlink.com 1.10,2013-10-25 06:54:00,